Time;durP1;ratioP1;P1;durP2;ratioP2;P2;SDS_P1;SDS_P2;PMS_P1;PMS_P2;Temp;Humidity;BMP_temperature;BMP_pressure;BME280_temperature;BME280_humidity;BME280_pressure;Samples;Min_cycle;Max_cycle;Signal;HPM_P1;HPM_P2
2022/02/02 00:03:54;;;;;;;33.15;6.00;;;;;;;6.89;65.63;99604.41;10464603;28;20544;-67
2022/02/02 00:09:10;;;;;;;25.08;4.50;;;;;;;6.75;65.03;99605.09;10463897;28;20048;-68
2022/02/02 00:14:26;;;;;;;26.48;5.65;;;;;;;6.76;64.57;99611.97;10465022;28;20052;-68
2022/02/02 00:25:02;;;;;;;28.67;5.40;;;;;;;6.94;64.35;99620.59;10466164;28;20048;-68
2022/02/02 00:29:56;;;;;;;31.15;5.72;;;;;;;6.92;64.17;99612.88;10482917;28;20056;-68
2022/02/02 00:34:58;;;;;;;26.98;5.72;;;;;;;6.93;64.13;99598.13;10467316;28;20130;-68
2022/02/02 00:40:00;;;;;;;34.10;5.60;;;;;;;7.05;63.92;99597.53;10466856;28;20139;-68
2022/02/02 00:45:03;;;;;;;34.15;6.32;;;;;;;7.01;63.88;99611.59;10478053;28;20397;-67
2022/02/02 00:50:06;;;;;;;26.70;5.88;;;;;;;7.17;63.68;99591.69;10472372;28;20182;-68
2022/02/02 00:55:08;;;;;;;28.10;6.07;;;;;;;7.04;63.46;99585.44;10474078;28;20347;-67
2022/02/02 01:00:10;;;;;;;34.85;6.63;;;;;;;7.05;63.71;99603.56;10472642;28;20080;-68
2022/02/02 01:05:13;;;;;;;36.78;6.68;;;;;;;7.16;63.48;99601.25;10474117;28;20175;-68
2022/02/02 01:10:28;;;;;;;33.70;6.40;;;;;;;7.14;63.38;99602.28;10474057;28;20059;-67
2022/02/02 01:20:40;;;;;;;40.28;6.47;;;;;;;7.10;63.32;99606.75;10472706;28;20052;-68
2022/02/02 01:31:03;;;;;;;21.67;4.20;;;;;;;6.76;63.38;99663.09;10472196;28;20407;-67
2022/02/02 01:36:06;;;;;;;26.67;4.90;;;;;;;6.53;63.06;99642.59;10476439;28;20845;-67
2022/02/02 01:41:15;;;;;;;22.85;4.53;;;;;;;6.35;63.07;99644.28;10454479;28;20057;-67
2022/02/02 01:46:19;;;;;;;26.00;5.03;;;;;;;6.13;62.73;99651.38;10471799;28;20050;-67
2022/02/02 01:56:23;;;;;;;26.83;5.13;;;;;;;6.06;63.41;99656.00;10472069;28;20045;-67
2022/02/02 02:01:26;;;;;;;29.45;5.10;;;;;;;6.02;63.51;99664.81;10470516;28;20052;-67
2022/02/02 02:06:30;;;;;;;28.38;5.95;;;;;;;6.02;63.39;99666.59;10471262;28;21029;-67
2022/02/02 02:11:32;;;;;;;24.67;5.28;;;;;;;6.04;63.29;99649.22;10470137;28;20572;-67
2022/02/02 02:16:33;;;;;;;27.25;5.43;;;;;;;6.05;63.47;99656.91;10471344;28;20044;-67
2022/02/02 02:21:35;;;;;;;30.67;5.78;;;;;;;5.96;63.96;99659.09;10471065;28;20052;-67
2022/02/02 02:26:40;;;;;;;30.33;5.57;;;;;;;5.99;64.09;99653.75;10470155;28;20057;-67
2022/02/02 02:58:10;;;;;;;38.13;6.72;;;;;;;6.08;64.54;99659.34;10470241;28;20048;-67
2022/02/02 04:06:20;;;;;;;37.25;6.57;;;;;;;6.17;63.63;99703.09;10472067;28;20059;-67
2022/02/02 04:11:49;;;;;;;35.78;7.65;;;;;;;6.23;63.44;99676.84;10490298;28;20138;-67
2022/02/02 04:54:20;;;;;;;33.42;6.25;;;;;;;6.51;62.56;99719.75;10474698;28;20135;-68
2022/02/02 05:05:05;;;;;;;38.17;7.05;;;;;;;6.60;62.14;99729.72;10474343;28;20358;-68
2022/02/02 05:10:14;;;;;;;35.38;6.63;;;;;;;6.74;61.98;99727.31;10474377;28;20562;-68
2022/02/02 05:15:40;;;;;;;32.38;6.80;;;;;;;6.68;62.00;99732.78;10474011;28;20051;-68
2022/02/02 05:52:30;;;;;;;29.90;6.15;;;;;;;6.62;61.53;99774.66;10472574;28;20041;-68
2022/02/02 05:57:32;;;;;;;31.88;6.25;;;;;;;6.57;61.53;99794.81;10472328;28;20043;-68
2022/02/02 06:02:38;;;;;;;35.65;6.28;;;;;;;6.61;61.14;99791.16;10472141;28;20520;-68
2022/02/02 06:07:42;;;;;;;39.58;6.47;;;;;;;6.52;61.08;99784.63;10471499;28;20123;-69
2022/02/02 06:12:44;;;;;;;37.28;6.38;;;;;;;6.54;60.98;99782.81;10472133;28;20052;-68
2022/02/02 06:17:50;;;;;;;33.90;7.28;;;;;;;6.71;60.72;99813.22;10471849;28;20418;-68
2022/02/02 06:23:02;;;;;;;33.80;6.10;;;;;;;6.68;60.29;99815.94;10469927;28;20056;-68
2022/02/02 06:28:09;;;;;;;29.52;5.50;;;;;;;6.76;59.71;99819.88;10471058;28;20501;-68
2022/02/02 06:33:11;;;;;;;29.92;6.10;;;;;;;6.67;60.19;99835.91;10470664;28;20041;-68
2022/02/02 06:38:16;;;;;;;34.40;6.28;;;;;;;6.67;59.82;99845.47;10469428;28;20527;-68
2022/02/02 06:43:19;;;;;;;31.90;6.45;;;;;;;6.60;59.83;99851.84;10470603;28;20139;-68
2022/02/02 06:48:21;;;;;;;31.52;5.70;;;;;;;6.47;59.48;99848.09;10469299;28;20052;-68
2022/02/02 06:58:44;;;;;;;29.75;5.97;;;;;;;6.48;58.84;99860.16;10469951;28;20054;-68
2022/02/02 07:14:32;;;;;;;36.65;5.55;;;;;;;6.01;60.17;99864.78;10469050;28;20131;-69
2022/02/02 07:41:15;;;;;;;32.70;6.18;;;;;;;6.56;59.41;99910.88;10468137;28;20132;-68
2022/02/02 07:46:25;;;;;;;33.88;6.22;;;;;;;6.52;59.69;99905.88;10468186;28;20067;-68
2022/02/02 07:51:27;;;;;;;40.50;6.93;;;;;;;6.50;59.83;99921.56;10467690;28;20459;-68
2022/02/02 07:56:40;;;;;;;31.17;5.75;;;;;;;6.72;59.54;99945.69;10457816;28;20049;-69
2022/02/02 08:01:44;;;;;;;35.50;7.43;;;;;;;6.83;59.28;99947.81;10478795;28;20050;-69
2022/02/02 08:06:53;;;;;;;28.40;6.00;;;;;;;6.85;59.50;99952.06;10467334;28;20156;-69
2022/02/02 08:11:55;;;;;;;34.03;6.95;;;;;;;6.97;59.27;99961.06;10466123;28;20136;-69
2022/02/02 08:17:04;;;;;;;33.00;6.43;;;;;;;7.10;59.58;99962.19;10475791;28;20058;-69
2022/02/02 08:22:06;;;;;;;28.45;5.65;;;;;;;7.01;59.29;99983.41;10488769;28;20052;-68
2022/02/02 08:27:08;;;;;;;34.38;7.13;;;;;;;7.02;59.07;99972.91;10465540;28;20052;-69
2022/02/02 08:32:10;;;;;;;33.88;6.18;;;;;;;7.12;59.11;99968.19;10465047;28;20483;-69
2022/02/02 08:37:12;;;;;;;42.92;7.70;;;;;;;7.30;58.75;99979.50;10465724;28;20054;-69
2022/02/02 08:42:15;;;;;;;31.17;6.10;;;;;;;7.24;58.66;99972.81;10488093;28;20067;-69
2022/02/02 08:47:21;;;;;;;37.35;7.03;;;;;;;7.20;58.79;99981.69;10465817;28;20055;-69
2022/02/02 08:52:32;;;;;;;25.48;6.32;;;;;;;7.33;58.47;99984.53;10465184;28;20408;-68
2022/02/02 08:58:18;;;;;;;27.75;5.53;;;;;;;7.56;57.90;99986.94;10466363;28;20059;-68
2022/02/02 09:08:41;;;;;;;30.88;5.75;;;;;;;7.65;57.18;100010.78;10492435;28;20059;-68
2022/02/02 09:24:34;;;;;;;26.42;5.85;;;;;;;7.75;56.70;100045.88;10471068;28;20704;-69
2022/02/02 09:34:58;;;;;;;23.70;5.30;;;;;;;7.81;55.87;100089.03;10474757;28;20048;-68
2022/02/02 09:40:26;;;;;;;24.45;4.95;;;;;;;7.82;55.23;100104.56;10473245;28;20044;-69
2022/02/02 09:45:27;;;;;;;25.83;4.90;;;;;;;8.02;55.24;100085.41;10474240;28;20044;-69
2022/02/02 09:50:37;;;;;;;25.83;5.65;;;;;;;7.84;54.84;100083.66;10472068;28;20044;-69
2022/02/02 10:06:56;;;;;;;21.88;4.72;;;;;;;7.84;53.21;100087.13;10473317;28;20299;-69
2022/02/02 10:17:10;;;;;;;24.33;5.10;;;;;;;8.55;51.83;100098.50;10469315;28;20136;-69
2022/02/02 10:22:22;;;;;;;20.92;4.22;;;;;;;8.51;52.21;100087.41;10457815;28;20052;-69
2022/02/02 10:27:32;;;;;;;25.17;5.10;;;;;;;8.65;51.92;100100.59;10471721;28;20537;-69
2022/02/02 10:32:51;;;;;;;19.15;5.05;;;;;;;8.59;52.39;100113.94;10471711;28;20052;-69
2022/02/02 10:37:58;;;;;;;27.15;5.70;;;;;;;8.64;52.38;100125.00;10471364;28;20048;-69
2022/02/02 10:43:00;;;;;;;24.02;4.78;;;;;;;8.62;52.56;100115.56;10468720;28;20059;-68
2022/02/02 10:48:16;;;;;;;26.13;4.50;;;;;;;8.60;51.06;100127.81;10468545;28;20292;-67
2022/02/02 10:59:06;;;;;;;24.70;5.00;;;;;;;8.69;51.85;100128.22;10469965;28;20325;-67
2022/02/02 11:09:23;;;;;;;22.70;4.80;;;;;;;9.10;51.31;100143.56;10469008;28;20124;-68
2022/02/02 11:14:48;;;;;;;27.40;5.15;;;;;;;9.04;51.01;100142.13;10467909;28;20048;-67
2022/02/02 11:19:57;;;;;;;20.48;4.43;;;;;;;8.94;50.87;100130.44;10468851;28;20084;-67
2022/02/02 11:25:04;;;;;;;20.67;4.22;;;;;;;9.03;50.23;100143.06;10469751;28;20057;-68
2022/02/02 11:30:08;;;;;;;22.50;5.13;;;;;;;8.75;51.03;100142.72;10469418;28;20531;-67
2022/02/02 11:35:50;;;;;;;21.15;3.92;;;;;;;8.56;50.54;100147.13;10469160;28;20051;-68
2022/02/02 11:41:13;;;;;;;23.42;4.32;;;;;;;8.59;52.31;100139.16;10468653;28;20052;-67
2022/02/02 11:46:41;;;;;;;;;;;;;;;8.47;51.50;100138.00;10465141;28;20048;-67
2022/02/02 11:51:51;;;;;;;27.50;5.18;;;;;;;9.09;51.18;100134.91;10470078;28;19924;-68
2022/02/02 11:57:10;;;;;;;24.40;5.13;;;;;;;9.08;51.17;100138.44;10467006;28;20048;-68
2022/02/02 12:20:30;;;;;;;24.35;5.68;;;;;;;8.59;52.69;100157.41;10468418;28;20080;-68
2022/02/02 12:56:38;;;;;;;20.88;4.78;;;;;;;8.60;58.22;100232.09;10470491;28;20211;-67
2022/02/02 13:01:40;;;;;;;23.38;4.82;;;;;;;8.57;58.54;100214.84;10474530;28;20576;-67
2022/02/02 13:06:42;;;;;;;27.38;5.65;;;;;;;8.61;58.57;100202.50;10473383;28;20052;-68
2022/02/02 13:11:48;;;;;;;32.78;5.82;;;;;;;9.16;57.81;100193.69;10473858;28;20087;-67
2022/02/02 13:17:03;;;;;;;32.00;6.40;;;;;;;8.90;57.46;100183.69;10455270;28;20048;-68
2022/02/02 13:22:06;;;;;;;31.92;6.35;;;;;;;8.68;57.90;100194.31;10471101;28;20044;-67
2022/02/02 13:27:16;;;;;;;32.00;5.85;;;;;;;8.72;58.20;100205.44;10476712;28;20113;-67
2022/02/02 13:32:31;;;;;;;24.17;5.82;;;;;;;8.67;58.01;100210.03;10471991;28;20056;-67
2022/02/02 13:59:05;;;;;;;29.63;5.15;;;;;;;10.36;54.15;100222.22;10469448;28;20048;-67
2022/02/02 14:35:46;;;;;;;27.80;5.65;;;;;;;10.28;50.30;100247.94;10466940;28;20059;-68
2022/02/02 14:45:58;;;;;;;25.98;4.97;;;;;;;9.96;49.92;100267.06;10480755;28;20051;-67
2022/02/02 14:51:18;;;;;;;24.42;5.13;;;;;;;9.96;49.96;100261.84;10467084;28;20147;-67
2022/02/02 15:28:52;;;;;;;24.75;5.18;;;;;;;9.45;50.95;100299.25;10466217;28;20859;-67
2022/02/02 15:33:55;;;;;;;23.75;5.55;;;;;;;9.45;50.67;100301.88;10466044;28;20142;-67
2022/02/02 15:38:58;;;;;;;28.63;5.10;;;;;;;9.34;50.75;100315.44;10464423;28;20490;-67
2022/02/02 15:54:49;;;;;;;26.20;5.20;;;;;;;8.65;52.02;100326.56;10465488;28;20139;-67
2022/02/02 16:00:23;;;;;;;23.10;5.20;;;;;;;8.39;52.65;100338.19;10466264;28;20488;-67
2022/02/02 16:05:26;;;;;;;29.30;5.22;;;;;;;8.24;52.57;100335.41;10462869;28;20048;-64
2022/02/02 16:10:41;;;;;;;23.00;4.72;;;;;;;8.06;52.67;100333.59;10464962;28;20054;-64
2022/02/02 16:15:45;;;;;;;22.42;5.20;;;;;;;7.91;52.89;100335.94;10467413;28;20498;-64
2022/02/02 16:46:55;;;;;;;25.13;5.07;;;;;;;7.25;54.66;100374.25;10475134;28;20057;-63
2022/02/02 16:51:56;;;;;;;24.35;6.20;;;;;;;7.18;54.69;100395.28;10472135;28;20139;-64
2022/02/02 17:39:56;;;;;;;23.77;5.82;;;;;;;7.06;56.31;100410.53;10465529;28;20125;-63
2022/02/02 17:45:21;;;;;;;24.83;4.93;;;;;;;7.15;56.29;100429.25;10475601;28;20130;-63
2022/02/02 18:22:05;;;;;;;28.02;8.82;;;;;;;5.98;58.80;100451.63;10465697;28;20139;-63
2022/02/02 18:27:16;;;;;;;23.85;7.65;;;;;;;5.82;59.60;100453.00;10464150;28;20468;-63
2022/02/02 18:32:39;;;;;;;30.17;10.60;;;;;;;5.65;59.90;100463.94;10470317;28;20131;-63
2022/02/02 18:48:51;;;;;;;36.70;11.43;;;;;;;5.11;61.13;100460.38;10468705;28;20049;-62
2022/02/02 19:04:38;;;;;;;27.73;8.83;;;;;;;4.70;62.03;100470.19;10473297;28;20132;-62
2022/02/02 19:26:05;;;;;;;29.37;8.10;;;;;;;4.63;62.43;100471.25;10468915;28;20051;-62
2022/02/02 20:08:37;;;;;;;28.23;8.47;;;;;;;4.34;63.78;100486.69;10446434;28;20116;-64
2022/02/02 20:13:39;;;;;;;28.33;7.85;;;;;;;4.38;63.77;100498.66;10465506;28;20059;-64
2022/02/02 20:18:44;;;;;;;32.55;9.02;;;;;;;4.32;64.08;100496.25;10467755;28;20053;-64
2022/02/02 20:23:48;;;;;;;24.17;8.40;;;;;;;4.45;63.78;100500.22;10468429;28;20053;-64
2022/02/02 20:28:50;;;;;;;33.70;11.25;;;;;;;4.48;63.80;100501.88;10467388;28;20059;-64
2022/02/02 20:33:52;;;;;;;27.38;9.45;;;;;;;4.52;63.87;100501.75;10469647;28;20126;-64
2022/02/02 20:38:54;;;;;;;27.67;9.88;;;;;;;4.53;63.63;100487.94;10466774;28;20102;-64
2022/02/02 20:44:02;;;;;;;25.02;8.55;;;;;;;4.45;63.88;100492.47;10465899;28;20084;-64
2022/02/02 21:05:31;;;;;;;28.60;9.32;;;;;;;4.68;63.95;100502.19;10480995;28;20059;-64
2022/02/02 21:10:35;;;;;;;37.50;9.43;;;;;;;4.74;63.97;100499.44;10469645;28;20047;-65
2022/02/02 21:15:38;;;;;;;27.27;9.45;;;;;;;4.84;63.40;100498.28;10471358;28;20450;-65
2022/02/02 21:20:57;;;;;;;26.23;9.40;;;;;;;4.86;63.35;100508.63;10472119;28;20052;-65
2022/02/02 21:31:17;;;;;;;29.58;9.85;;;;;;;5.01;63.45;100528.94;10469442;28;20151;-65
2022/02/02 21:36:20;;;;;;;30.15;10.68;;;;;;;5.11;63.31;100526.06;10470586;28;20416;-64
2022/02/02 21:41:29;;;;;;;31.98;10.90;;;;;;;5.25;62.95;100523.91;10469798;28;20413;-65
2022/02/02 21:46:32;;;;;;;37.90;12.07;;;;;;;5.17;62.78;100525.03;10470687;28;20493;-65
2022/02/02 21:51:38;;;;;;;27.13;8.75;;;;;;;5.00;63.21;100529.84;10467795;28;20647;-64
2022/02/02 21:56:40;;;;;;;26.70;10.00;;;;;;;4.97;63.47;100537.69;10469477;28;20431;-64
2022/02/02 22:01:42;;;;;;;25.77;9.95;;;;;;;5.06;63.34;100542.63;10468594;28;20413;-64
2022/02/02 22:06:44;;;;;;;32.85;10.57;;;;;;;5.06;63.34;100540.03;10470750;28;20794;-64
2022/02/02 22:11:45;;;;;;;32.15;10.45;;;;;;;5.18;63.38;100539.69;10468842;28;20074;-65
2022/02/02 22:16:49;;;;;;;28.42;9.50;;;;;;;5.19;63.45;100536.19;10468608;28;20045;-64
2022/02/02 22:21:51;;;;;;;34.55;10.65;;;;;;;5.14;63.90;100532.91;10468954;28;20044;-64
2022/02/02 22:26:55;;;;;;;30.00;10.70;;;;;;;5.25;63.84;100536.03;10469155;28;20139;-64
2022/02/02 22:31:57;;;;;;;33.80;12.98;;;;;;;5.23;63.97;100532.63;10465625;28;20053;-64
2022/02/02 22:36:59;;;;;;;33.22;13.48;;;;;;;5.22;64.14;100528.34;10469018;28;21313;-64
2022/02/02 22:42:01;;;;;;;40.67;14.05;;;;;;;5.15;63.86;100526.81;10468450;28;20041;-64
2022/02/02 22:47:06;;;;;;;40.05;14.90;;;;;;;4.87;64.24;100512.91;10468740;28;20359;-64
2022/02/02 22:52:09;;;;;;;42.33;14.55;;;;;;;4.75;64.94;100519.28;10468245;28;20056;-64
2022/02/02 22:57:11;;;;;;;37.97;13.65;;;;;;;4.89;64.88;100521.50;10466589;28;20048;-64
2022/02/02 23:02:24;;;;;;;36.35;15.68;;;;;;;4.99;64.70;100529.00;10466454;28;20037;-64
2022/02/02 23:07:26;;;;;;;37.72;14.57;;;;;;;5.04;64.77;100526.28;10466369;28;20055;-64
2022/02/02 23:12:28;;;;;;;41.58;14.52;;;;;;;5.06;64.82;100524.50;10467759;28;20386;-64
2022/02/02 23:17:31;;;;;;;38.08;14.05;;;;;;;5.05;64.71;100527.97;10468567;28;20058;-64
2022/02/02 23:22:35;;;;;;;32.78;13.35;;;;;;;5.08;64.81;100526.16;10466640;28;20055;-64
2022/02/02 23:27:38;;;;;;;34.78;13.15;;;;;;;5.10;64.78;100523.50;10465242;28;20064;-64
2022/02/02 23:32:40;;;;;;;34.58;14.25;;;;;;;5.11;64.87;100523.47;10466015;28;20485;-64
2022/02/02 23:37:43;;;;;;;37.45;13.68;;;;;;;5.07;64.87;100521.00;10465789;28;20063;-64
2022/02/02 23:42:45;;;;;;;45.97;16.80;;;;;;;5.05;65.14;100515.84;10466531;28;20067;-64
2022/02/02 23:47:49;;;;;;;39.55;16.77;;;;;;;5.19;65.09;100510.28;10464560;28;20620;-64
2022/02/02 23:52:54;;;;;;;42.47;16.15;;;;;;;5.04;64.84;100508.97;10468284;28;20082;-64
2022/02/02 23:58:18;;;;;;;41.85;16.33;;;;;;;4.88;65.68;100509.44;10461611;28;20054;-64
